sensor_id;sensor_type;location;lat;lon;timestamp;temperature;humidity
3923;DHT22;1976;51.694;6.256;2024-01-16T00:02:06;1.50;99.90
3923;DHT22;1976;51.694;6.256;2024-01-16T00:04:35;1.50;99.90
3923;DHT22;1976;51.694;6.256;2024-01-16T00:07:01;1.50;99.90
3923;DHT22;1976;51.694;6.256;2024-01-16T00:09:26;1.50;99.90
3923;DHT22;1976;51.694;6.256;2024-01-16T00:11:52;1.50;99.90
3923;DHT22;1976;51.694;6.256;2024-01-16T00:14:18;1.50;99.90
3923;DHT22;1976;51.694;6.256;2024-01-16T00:16:45;1.40;99.90
3923;DHT22;1976;51.694;6.256;2024-01-16T00:19:11;1.40;99.90
3923;DHT22;1976;51.694;6.256;2024-01-16T00:21:41;1.30;99.90
3923;DHT22;1976;51.694;6.256;2024-01-16T00:24:07;1.20;99.90
3923;DHT22;1976;51.694;6.256;2024-01-16T00:26:33;1.20;99.90
3923;DHT22;1976;51.694;6.256;2024-01-16T00:28:59;1.20;99.90
3923;DHT22;1976;51.694;6.256;2024-01-16T00:31:24;1.10;99.90
3923;DHT22;1976;51.694;6.256;2024-01-16T00:33:50;1.10;99.90
3923;DHT22;1976;51.694;6.256;2024-01-16T00:36:15;1.20;99.90
3923;DHT22;1976;51.694;6.256;2024-01-16T00:38:41;1.20;99.90
3923;DHT22;1976;51.694;6.256;2024-01-16T00:41:06;1.20;99.90
3923;DHT22;1976;51.694;6.256;2024-01-16T00:43:32;1.20;99.90
3923;DHT22;1976;51.694;6.256;2024-01-16T00:45:58;1.20;99.90
3923;DHT22;1976;51.694;6.256;2024-01-16T00:48:24;1.20;99.90
3923;DHT22;1976;51.694;6.256;2024-01-16T00:50:49;1.20;99.90
3923;DHT22;1976;51.694;6.256;2024-01-16T00:53:18;1.20;99.90
3923;DHT22;1976;51.694;6.256;2024-01-16T00:55:44;1.20;99.90
3923;DHT22;1976;51.694;6.256;2024-01-16T00:58:10;1.20;99.90
3923;DHT22;1976;51.694;6.256;2024-01-16T01:00:35;1.20;99.90
3923;DHT22;1976;51.694;6.256;2024-01-16T01:03:03;1.10;99.90
3923;DHT22;1976;51.694;6.256;2024-01-16T01:05:29;1.70;99.90
3923;DHT22;1976;51.694;6.256;2024-01-16T01:07:55;1.00;99.90
3923;DHT22;1976;51.694;6.256;2024-01-16T01:10:21;1.00;99.90
3923;DHT22;1976;51.694;6.256;2024-01-16T01:12:47;1.10;99.90
3923;DHT22;1976;51.694;6.256;2024-01-16T01:15:13;1.00;99.90
3923;DHT22;1976;51.694;6.256;2024-01-16T01:17:39;1.00;99.90
3923;DHT22;1976;51.694;6.256;2024-01-16T01:20:07;1.00;99.90
3923;DHT22;1976;51.694;6.256;2024-01-16T01:22:33;1.00;99.90
3923;DHT22;1976;51.694;6.256;2024-01-16T01:24:59;1.10;99.90
3923;DHT22;1976;51.694;6.256;2024-01-16T01:27:25;1.20;99.90
3923;DHT22;1976;51.694;6.256;2024-01-16T01:29:50;1.20;99.90
3923;DHT22;1976;51.694;6.256;2024-01-16T01:32:16;1.20;99.90
3923;DHT22;1976;51.694;6.256;2024-01-16T01:34:42;1.30;99.90
3923;DHT22;1976;51.694;6.256;2024-01-16T01:37:08;1.30;99.90
3923;DHT22;1976;51.694;6.256;2024-01-16T01:39:33;1.30;99.90
3923;DHT22;1976;51.694;6.256;2024-01-16T01:41:59;1.40;99.90
3923;DHT22;1976;51.694;6.256;2024-01-16T01:44:25;1.40;99.90
3923;DHT22;1976;51.694;6.256;2024-01-16T01:46:51;1.40;99.90
3923;DHT22;1976;51.694;6.256;2024-01-16T01:49:19;1.50;99.90
3923;DHT22;1976;51.694;6.256;2024-01-16T01:51:45;1.40;99.90
3923;DHT22;1976;51.694;6.256;2024-01-16T01:54:12;1.40;99.90
3923;DHT22;1976;51.694;6.256;2024-01-16T01:56:38;1.50;99.90
3923;DHT22;1976;51.694;6.256;2024-01-16T01:59:04;1.50;99.90
3923;DHT22;1976;51.694;6.256;2024-01-16T02:01:31;1.60;99.90
3923;DHT22;1976;51.694;6.256;2024-01-16T02:03:57;1.50;99.90
3923;DHT22;1976;51.694;6.256;2024-01-16T02:06:24;1.50;99.90
3923;DHT22;1976;51.694;6.256;2024-01-16T02:08:51;1.60;99.90
3923;DHT22;1976;51.694;6.256;2024-01-16T02:11:16;1.60;99.90
3923;DHT22;1976;51.694;6.256;2024-01-16T02:13:42;1.50;99.90
3923;DHT22;1976;51.694;6.256;2024-01-16T02:16:18;1.50;99.90
3923;DHT22;1976;51.694;6.256;2024-01-16T02:18:44;1.60;99.90
3923;DHT22;1976;51.694;6.256;2024-01-16T02:21:10;1.60;99.90
3923;DHT22;1976;51.694;6.256;2024-01-16T02:23:36;1.50;99.90
3923;DHT22;1976;51.694;6.256;2024-01-16T02:26:02;1.50;99.90
3923;DHT22;1976;51.694;6.256;2024-01-16T02:28:29;1.60;99.90
3923;DHT22;1976;51.694;6.256;2024-01-16T02:30:54;1.60;99.90
3923;DHT22;1976;51.694;6.256;2024-01-16T02:33:20;1.60;99.90
3923;DHT22;1976;51.694;6.256;2024-01-16T02:35:45;1.50;99.90
3923;DHT22;1976;51.694;6.256;2024-01-16T02:38:11;1.60;99.90
3923;DHT22;1976;51.694;6.256;2024-01-16T02:40:36;1.50;99.90
3923;DHT22;1976;51.694;6.256;2024-01-16T02:43:02;1.50;99.90
3923;DHT22;1976;51.694;6.256;2024-01-16T02:45:28;1.60;99.90
3923;DHT22;1976;51.694;6.256;2024-01-16T02:47:53;1.60;99.90
3923;DHT22;1976;51.694;6.256;2024-01-16T02:50:19;1.60;99.90
3923;DHT22;1976;51.694;6.256;2024-01-16T02:52:45;1.60;99.90
3923;DHT22;1976;51.694;6.256;2024-01-16T02:55:11;1.60;99.90
3923;DHT22;1976;51.694;6.256;2024-01-16T02:57:36;1.50;99.90
3923;DHT22;1976;51.694;6.256;2024-01-16T03:00:02;1.50;99.90
3923;DHT22;1976;51.694;6.256;2024-01-16T03:02:28;1.50;99.90
3923;DHT22;1976;51.694;6.256;2024-01-16T03:04:55;1.40;99.90
3923;DHT22;1976;51.694;6.256;2024-01-16T03:07:20;1.50;99.90
3923;DHT22;1976;51.694;6.256;2024-01-16T03:09:46;1.50;99.90
3923;DHT22;1976;51.694;6.256;2024-01-16T03:12:11;1.50;99.90
3923;DHT22;1976;51.694;6.256;2024-01-16T03:14:37;1.50;99.90
3923;DHT22;1976;51.694;6.256;2024-01-16T03:17:04;1.40;99.90
3923;DHT22;1976;51.694;6.256;2024-01-16T03:19:30;1.40;99.90
3923;DHT22;1976;51.694;6.256;2024-01-16T03:21:55;1.40;99.90
3923;DHT22;1976;51.694;6.256;2024-01-16T03:24:21;1.50;99.90
3923;DHT22;1976;51.694;6.256;2024-01-16T03:26:47;1.50;99.90
3923;DHT22;1976;51.694;6.256;2024-01-16T03:29:13;1.50;99.90
3923;DHT22;1976;51.694;6.256;2024-01-16T03:31:39;1.40;99.90
3923;DHT22;1976;51.694;6.256;2024-01-16T03:34:04;1.40;99.90
3923;DHT22;1976;51.694;6.256;2024-01-16T03:36:30;1.40;99.90
3923;DHT22;1976;51.694;6.256;2024-01-16T03:38:56;1.50;99.90
3923;DHT22;1976;51.694;6.256;2024-01-16T03:41:22;1.40;99.90
3923;DHT22;1976;51.694;6.256;2024-01-16T03:43:47;1.40;99.90
3923;DHT22;1976;51.694;6.256;2024-01-16T03:46:13;1.40;99.90
3923;DHT22;1976;51.694;6.256;2024-01-16T03:48:39;1.50;99.90
3923;DHT22;1976;51.694;6.256;2024-01-16T03:51:05;1.50;99.90
3923;DHT22;1976;51.694;6.256;2024-01-16T03:53:32;1.50;99.90
3923;DHT22;1976;51.694;6.256;2024-01-16T03:55:58;1.50;99.90
3923;DHT22;1976;51.694;6.256;2024-01-16T03:58:23;1.50;99.90
3923;DHT22;1976;51.694;6.256;2024-01-16T04:00:49;1.60;99.90
3923;DHT22;1976;51.694;6.256;2024-01-16T04:03:16;1.60;99.90
3923;DHT22;1976;51.694;6.256;2024-01-16T04:05:42;1.70;99.90
3923;DHT22;1976;51.694;6.256;2024-01-16T04:08:08;1.60;99.90
3923;DHT22;1976;51.694;6.256;2024-01-16T04:10:33;1.60;99.90
3923;DHT22;1976;51.694;6.256;2024-01-16T04:13:02;1.60;99.90
3923;DHT22;1976;51.694;6.256;2024-01-16T04:15:28;1.60;99.90
3923;DHT22;1976;51.694;6.256;2024-01-16T04:17:54;1.60;99.90
3923;DHT22;1976;51.694;6.256;2024-01-16T04:20:20;1.50;99.90
3923;DHT22;1976;51.694;6.256;2024-01-16T04:22:46;1.50;99.90
3923;DHT22;1976;51.694;6.256;2024-01-16T04:25:12;1.40;99.90
3923;DHT22;1976;51.694;6.256;2024-01-16T04:27:38;1.40;99.90
3923;DHT22;1976;51.694;6.256;2024-01-16T04:30:03;1.40;99.90
3923;DHT22;1976;51.694;6.256;2024-01-16T04:32:29;1.40;99.90
3923;DHT22;1976;51.694;6.256;2024-01-16T04:34:55;1.30;99.90
3923;DHT22;1976;51.694;6.256;2024-01-16T04:37:20;1.30;99.90
3923;DHT22;1976;51.694;6.256;2024-01-16T04:39:46;1.30;99.90
3923;DHT22;1976;51.694;6.256;2024-01-16T04:42:11;1.30;99.90
3923;DHT22;1976;51.694;6.256;2024-01-16T04:44:37;1.40;99.90
3923;DHT22;1976;51.694;6.256;2024-01-16T04:47:02;1.40;99.90
3923;DHT22;1976;51.694;6.256;2024-01-16T04:49:28;1.30;99.90
3923;DHT22;1976;51.694;6.256;2024-01-16T04:51:54;1.40;99.90
3923;DHT22;1976;51.694;6.256;2024-01-16T04:54:19;1.40;99.90
3923;DHT22;1976;51.694;6.256;2024-01-16T04:56:45;1.40;99.90
3923;DHT22;1976;51.694;6.256;2024-01-16T04:59:10;1.20;99.90
3923;DHT22;1976;51.694;6.256;2024-01-16T05:01:36;1.20;99.90
3923;DHT22;1976;51.694;6.256;2024-01-16T05:04:01;1.20;99.90
3923;DHT22;1976;51.694;6.256;2024-01-16T05:06:29;1.20;99.90
3923;DHT22;1976;51.694;6.256;2024-01-16T05:08:55;1.20;99.90
3923;DHT22;1976;51.694;6.256;2024-01-16T05:11:21;1.20;99.90
3923;DHT22;1976;51.694;6.256;2024-01-16T05:13:46;1.20;99.90
3923;DHT22;1976;51.694;6.256;2024-01-16T05:16:13;1.20;99.90
3923;DHT22;1976;51.694;6.256;2024-01-16T05:18:41;1.30;99.90
3923;DHT22;1976;51.694;6.256;2024-01-16T05:21:07;1.30;99.90
3923;DHT22;1976;51.694;6.256;2024-01-16T05:23:32;1.40;99.90
3923;DHT22;1976;51.694;6.256;2024-01-16T05:25:58;1.40;99.90
3923;DHT22;1976;51.694;6.256;2024-01-16T05:28:24;1.40;99.90
3923;DHT22;1976;51.694;6.256;2024-01-16T05:30:49;1.50;99.90
3923;DHT22;1976;51.694;6.256;2024-01-16T05:33:15;1.50;99.90
3923;DHT22;1976;51.694;6.256;2024-01-16T05:35:41;1.50;99.90
3923;DHT22;1976;51.694;6.256;2024-01-16T05:38:06;1.50;99.90
3923;DHT22;1976;51.694;6.256;2024-01-16T05:40:32;1.40;99.90
3923;DHT22;1976;51.694;6.256;2024-01-16T05:42:58;1.40;99.90
3923;DHT22;1976;51.694;6.256;2024-01-16T05:45:23;1.40;99.90
3923;DHT22;1976;51.694;6.256;2024-01-16T05:47:49;1.40;99.90
3923;DHT22;1976;51.694;6.256;2024-01-16T05:50:14;1.40;99.90
3923;DHT22;1976;51.694;6.256;2024-01-16T05:52:43;1.40;99.90
3923;DHT22;1976;51.694;6.256;2024-01-16T05:55:09;1.30;99.90
3923;DHT22;1976;51.694;6.256;2024-01-16T05:57:36;1.20;99.90
3923;DHT22;1976;51.694;6.256;2024-01-16T06:00:03;1.20;99.90
3923;DHT22;1976;51.694;6.256;2024-01-16T06:02:29;1.20;99.90
3923;DHT22;1976;51.694;6.256;2024-01-16T06:04:54;1.20;99.90
3923;DHT22;1976;51.694;6.256;2024-01-16T06:07:20;1.20;99.90
3923;DHT22;1976;51.694;6.256;2024-01-16T06:09:46;1.10;99.90
3923;DHT22;1976;51.694;6.256;2024-01-16T06:12:11;1.10;99.90
3923;DHT22;1976;51.694;6.256;2024-01-16T06:14:37;1.20;99.90
3923;DHT22;1976;51.694;6.256;2024-01-16T06:17:03;1.20;99.90
3923;DHT22;1976;51.694;6.256;2024-01-16T06:19:31;1.20;99.90
3923;DHT22;1976;51.694;6.256;2024-01-16T06:21:56;1.10;99.90
3923;DHT22;1976;51.694;6.256;2024-01-16T06:24:22;1.20;99.90
3923;DHT22;1976;51.694;6.256;2024-01-16T06:26:47;1.10;99.90
3923;DHT22;1976;51.694;6.256;2024-01-16T06:29:13;1.00;99.90
3923;DHT22;1976;51.694;6.256;2024-01-16T06:31:39;1.10;99.90
3923;DHT22;1976;51.694;6.256;2024-01-16T06:34:04;1.10;99.90
3923;DHT22;1976;51.694;6.256;2024-01-16T06:36:30;1.10;99.90
3923;DHT22;1976;51.694;6.256;2024-01-16T06:38:55;1.00;99.90
3923;DHT22;1976;51.694;6.256;2024-01-16T06:41:21;1.00;99.90
3923;DHT22;1976;51.694;6.256;2024-01-16T06:43:47;1.10;99.90
3923;DHT22;1976;51.694;6.256;2024-01-16T06:46:12;1.20;99.90
3923;DHT22;1976;51.694;6.256;2024-01-16T06:48:38;1.10;99.90
3923;DHT22;1976;51.694;6.256;2024-01-16T06:51:05;1.10;99.90
3923;DHT22;1976;51.694;6.256;2024-01-16T06:53:30;1.10;99.90
3923;DHT22;1976;51.694;6.256;2024-01-16T06:55:56;1.20;99.90
3923;DHT22;1976;51.694;6.256;2024-01-16T06:58:21;1.10;99.90
3923;DHT22;1976;51.694;6.256;2024-01-16T07:00:47;1.10;99.90
3923;DHT22;1976;51.694;6.256;2024-01-16T07:03:13;1.00;99.90
3923;DHT22;1976;51.694;6.256;2024-01-16T07:05:39;0.90;99.90
3923;DHT22;1976;51.694;6.256;2024-01-16T07:08:08;1.10;99.90
3923;DHT22;1976;51.694;6.256;2024-01-16T07:10:34;1.10;99.90
3923;DHT22;1976;51.694;6.256;2024-01-16T07:13:01;1.00;99.90
3923;DHT22;1976;51.694;6.256;2024-01-16T07:15:27;1.00;99.90
3923;DHT22;1976;51.694;6.256;2024-01-16T07:17:52;1.00;99.90
3923;DHT22;1976;51.694;6.256;2024-01-16T07:20:18;1.00;99.90
3923;DHT22;1976;51.694;6.256;2024-01-16T07:22:44;1.00;99.90
3923;DHT22;1976;51.694;6.256;2024-01-16T07:25:09;1.00;99.90
3923;DHT22;1976;51.694;6.256;2024-01-16T07:27:35;1.00;99.90
3923;DHT22;1976;51.694;6.256;2024-01-16T07:30:03;1.00;99.90
3923;DHT22;1976;51.694;6.256;2024-01-16T07:32:29;1.10;99.90
3923;DHT22;1976;51.694;6.256;2024-01-16T07:34:55;1.10;99.90
3923;DHT22;1976;51.694;6.256;2024-01-16T07:37:20;1.00;99.90
3923;DHT22;1976;51.694;6.256;2024-01-16T07:39:46;0.90;99.90
3923;DHT22;1976;51.694;6.256;2024-01-16T07:42:12;1.00;99.90
3923;DHT22;1976;51.694;6.256;2024-01-16T07:44:37;0.80;99.90
3923;DHT22;1976;51.694;6.256;2024-01-16T07:47:03;0.70;99.90
3923;DHT22;1976;51.694;6.256;2024-01-16T07:49:29;0.80;99.90
3923;DHT22;1976;51.694;6.256;2024-01-16T07:56:47;0.80;99.90
3923;DHT22;1976;51.694;6.256;2024-01-16T07:59:12;0.80;99.90
3923;DHT22;1976;51.694;6.256;2024-01-16T08:01:39;0.70;99.90
3923;DHT22;1976;51.694;6.256;2024-01-16T08:04:05;0.80;99.90
3923;DHT22;1976;51.694;6.256;2024-01-16T08:06:30;0.80;99.90
3923;DHT22;1976;51.694;6.256;2024-01-16T08:08:56;0.80;99.90
3923;DHT22;1976;51.694;6.256;2024-01-16T08:11:22;0.80;99.90
3923;DHT22;1976;51.694;6.256;2024-01-16T08:13:47;0.80;99.90
3923;DHT22;1976;51.694;6.256;2024-01-16T08:16:13;0.80;99.90
3923;DHT22;1976;51.694;6.256;2024-01-16T08:18:39;0.80;99.90
3923;DHT22;1976;51.694;6.256;2024-01-16T08:21:04;0.80;99.90
3923;DHT22;1976;51.694;6.256;2024-01-16T08:23:30;0.80;99.90
3923;DHT22;1976;51.694;6.256;2024-01-16T08:25:55;0.90;99.90
3923;DHT22;1976;51.694;6.256;2024-01-16T08:28:21;0.90;99.90
3923;DHT22;1976;51.694;6.256;2024-01-16T08:30:49;0.80;99.90
3923;DHT22;1976;51.694;6.256;2024-01-16T08:33:15;0.80;99.90
3923;DHT22;1976;51.694;6.256;2024-01-16T08:35:40;0.80;99.90
3923;DHT22;1976;51.694;6.256;2024-01-16T08:38:06;0.80;99.90
3923;DHT22;1976;51.694;6.256;2024-01-16T08:40:31;0.80;99.90
3923;DHT22;1976;51.694;6.256;2024-01-16T08:42:57;0.70;99.90
3923;DHT22;1976;51.694;6.256;2024-01-16T08:45:22;0.70;99.90
3923;DHT22;1976;51.694;6.256;2024-01-16T08:47:48;0.70;99.90
3923;DHT22;1976;51.694;6.256;2024-01-16T08:50:15;0.80;99.90
3923;DHT22;1976;51.694;6.256;2024-01-16T08:52:41;0.70;99.90
3923;DHT22;1976;51.694;6.256;2024-01-16T08:55:07;0.70;99.90
3923;DHT22;1976;51.694;6.256;2024-01-16T08:57:34;0.70;99.90
3923;DHT22;1976;51.694;6.256;2024-01-16T09:00:00;0.80;99.90
3923;DHT22;1976;51.694;6.256;2024-01-16T09:02:26;0.80;99.90
3923;DHT22;1976;51.694;6.256;2024-01-16T09:04:55;0.70;99.90
3923;DHT22;1976;51.694;6.256;2024-01-16T09:07:20;0.80;99.90
3923;DHT22;1976;51.694;6.256;2024-01-16T09:09:46;0.80;99.90
3923;DHT22;1976;51.694;6.256;2024-01-16T09:12:11;0.90;99.90
3923;DHT22;1976;51.694;6.256;2024-01-16T09:14:37;0.90;99.90
3923;DHT22;1976;51.694;6.256;2024-01-16T09:17:03;0.90;99.90
3923;DHT22;1976;51.694;6.256;2024-01-16T09:19:29;0.90;99.90
3923;DHT22;1976;51.694;6.256;2024-01-16T09:21:55;1.00;99.90
3923;DHT22;1976;51.694;6.256;2024-01-16T09:24:21;0.90;99.90
3923;DHT22;1976;51.694;6.256;2024-01-16T09:26:46;1.00;99.90
3923;DHT22;1976;51.694;6.256;2024-01-16T09:29:12;1.10;99.90
3923;DHT22;1976;51.694;6.256;2024-01-16T09:31:39;1.10;99.90
3923;DHT22;1976;51.694;6.256;2024-01-16T09:34:05;1.20;99.90
3923;DHT22;1976;51.694;6.256;2024-01-16T09:36:30;1.30;99.90
3923;DHT22;1976;51.694;6.256;2024-01-16T09:38:56;1.30;99.90
3923;DHT22;1976;51.694;6.256;2024-01-16T09:41:22;1.30;99.90
3923;DHT22;1976;51.694;6.256;2024-01-16T09:43:48;1.30;99.90
3923;DHT22;1976;51.694;6.256;2024-01-16T09:46:15;1.30;99.90
3923;DHT22;1976;51.694;6.256;2024-01-16T09:48:44;1.50;99.90
3923;DHT22;1976;51.694;6.256;2024-01-16T09:51:11;1.50;99.90
3923;DHT22;1976;51.694;6.256;2024-01-16T09:53:40;1.60;99.90
3923;DHT22;1976;51.694;6.256;2024-01-16T09:56:13;1.60;99.90
3923;DHT22;1976;51.694;6.256;2024-01-16T09:58:39;1.70;99.90
3923;DHT22;1976;51.694;6.256;2024-01-16T10:01:05;1.70;99.90
3923;DHT22;1976;51.694;6.256;2024-01-16T10:03:31;1.50;99.90
3923;DHT22;1976;51.694;6.256;2024-01-16T10:05:59;1.50;99.90
3923;DHT22;1976;51.694;6.256;2024-01-16T10:08:26;1.70;99.90
3923;DHT22;1976;51.694;6.256;2024-01-16T10:10:52;1.80;99.90
3923;DHT22;1976;51.694;6.256;2024-01-16T10:13:18;2.00;99.90
3923;DHT22;1976;51.694;6.256;2024-01-16T10:15:44;2.20;99.90
3923;DHT22;1976;51.694;6.256;2024-01-16T10:18:28;2.30;99.90
3923;DHT22;1976;51.694;6.256;2024-01-16T10:20:57;2.40;99.90
3923;DHT22;1976;51.694;6.256;2024-01-16T10:23:28;2.70;99.90
3923;DHT22;1976;51.694;6.256;2024-01-16T10:28:37;3.30;99.90
3923;DHT22;1976;51.694;6.256;2024-01-16T10:31:04;3.60;99.90
3923;DHT22;1976;51.694;6.256;2024-01-16T10:33:30;3.80;99.90
3923;DHT22;1976;51.694;6.256;2024-01-16T10:36:14;4.20;99.90
3923;DHT22;1976;51.694;6.256;2024-01-16T10:38:43;4.60;99.90
3923;DHT22;1976;51.694;6.256;2024-01-16T10:41:10;4.20;99.90
3923;DHT22;1976;51.694;6.256;2024-01-16T10:43:37;3.90;99.90
3923;DHT22;1976;51.694;6.256;2024-01-16T10:46:16;3.90;99.90
3923;DHT22;1976;51.694;6.256;2024-01-16T10:48:58;4.00;99.90
3923;DHT22;1976;51.694;6.256;2024-01-16T10:51:23;4.30;99.90
3923;DHT22;1976;51.694;6.256;2024-01-16T10:53:55;5.50;99.90
3923;DHT22;1976;51.694;6.256;2024-01-16T10:56:23;6.60;99.90
3923;DHT22;1976;51.694;6.256;2024-01-16T10:58:58;7.30;98.20
3923;DHT22;1976;51.694;6.256;2024-01-16T11:01:26;7.20;97.70
3923;DHT22;1976;51.694;6.256;2024-01-16T11:03:53;7.60;97.50
3923;DHT22;1976;51.694;6.256;2024-01-16T11:06:22;8.30;97.40
3923;DHT22;1976;51.694;6.256;2024-01-16T11:08:49;9.20;97.40
3923;DHT22;1976;51.694;6.256;2024-01-16T11:11:15;9.70;96.40
3923;DHT22;1976;51.694;6.256;2024-01-16T11:13:42;10.00;93.70
3923;DHT22;1976;51.694;6.256;2024-01-16T11:16:10;9.90;92.90
3923;DHT22;1976;51.694;6.256;2024-01-16T11:18:36;9.80;94.00
3923;DHT22;1976;51.694;6.256;2024-01-16T11:21:08;10.30;92.80
3923;DHT22;1976;51.694;6.256;2024-01-16T11:23:34;10.50;91.40
3923;DHT22;1976;51.694;6.256;2024-01-16T11:28:58;10.70;91.30
3923;DHT22;1976;51.694;6.256;2024-01-16T11:31:31;10.70;90.00
3923;DHT22;1976;51.694;6.256;2024-01-16T11:44:49;12.70;86.50
3923;DHT22;1976;51.694;6.256;2024-01-16T11:47:23;12.40;84.40
3923;DHT22;1976;51.694;6.256;2024-01-16T11:50:09;12.30;85.00
3923;DHT22;1976;51.694;6.256;2024-01-16T11:52:42;12.70;84.80
3923;DHT22;1976;51.694;6.256;2024-01-16T11:55:33;13.20;83.30
3923;DHT22;1976;51.694;6.256;2024-01-16T11:58:03;13.20;84.70
3923;DHT22;1976;51.694;6.256;2024-01-16T12:00:35;13.20;82.20
3923;DHT22;1976;51.694;6.256;2024-01-16T12:03:02;12.70;82.20
3923;DHT22;1976;51.694;6.256;2024-01-16T12:05:29;11.50;84.20
3923;DHT22;1976;51.694;6.256;2024-01-16T12:07:55;11.40;84.80
3923;DHT22;1976;51.694;6.256;2024-01-16T12:10:24;11.00;84.50
3923;DHT22;1976;51.694;6.256;2024-01-16T12:12:51;11.10;84.80
3923;DHT22;1976;51.694;6.256;2024-01-16T12:15:21;11.70;84.30
3923;DHT22;1976;51.694;6.256;2024-01-16T12:17:54;11.80;83.20
3923;DHT22;1976;51.694;6.256;2024-01-16T12:20:20;12.00;83.50
3923;DHT22;1976;51.694;6.256;2024-01-16T12:22:56;12.30;82.20
3923;DHT22;1976;51.694;6.256;2024-01-16T12:25:22;10.40;81.40
3923;DHT22;1976;51.694;6.256;2024-01-16T12:30:21;8.10;90.20
3923;DHT22;1976;51.694;6.256;2024-01-16T12:32:47;8.30;91.20
3923;DHT22;1976;51.694;6.256;2024-01-16T12:35:12;9.30;90.40
3923;DHT22;1976;51.694;6.256;2024-01-16T12:38:00;10.30;88.70
3923;DHT22;1976;51.694;6.256;2024-01-16T12:40:26;11.40;87.20
3923;DHT22;1976;51.694;6.256;2024-01-16T12:42:52;12.10;82.70
3923;DHT22;1976;51.694;6.256;2024-01-16T12:45:18;12.30;82.30
3923;DHT22;1976;51.694;6.256;2024-01-16T12:47:49;13.20;82.30
3923;DHT22;1976;51.694;6.256;2024-01-16T12:50:26;13.00;80.50
3923;DHT22;1976;51.694;6.256;2024-01-16T12:53:09;13.30;80.30
3923;DHT22;1976;51.694;6.256;2024-01-16T12:55:39;13.80;79.40
3923;DHT22;1976;51.694;6.256;2024-01-16T12:58:32;14.40;78.80
3923;DHT22;1976;51.694;6.256;2024-01-16T13:01:26;14.50;77.60
3923;DHT22;1976;51.694;6.256;2024-01-16T13:03:52;14.80;77.30
3923;DHT22;1976;51.694;6.256;2024-01-16T13:06:19;14.60;76.50
3923;DHT22;1976;51.694;6.256;2024-01-16T13:08:49;14.20;76.00
3923;DHT22;1976;51.694;6.256;2024-01-16T13:11:15;13.80;76.70
3923;DHT22;1976;51.694;6.256;2024-01-16T13:13:48;13.60;77.10
3923;DHT22;1976;51.694;6.256;2024-01-16T13:16:15;12.90;77.40
3923;DHT22;1976;51.694;6.256;2024-01-16T13:18:41;13.00;77.30
3923;DHT22;1976;51.694;6.256;2024-01-16T13:21:07;12.50;78.30
3923;DHT22;1976;51.694;6.256;2024-01-16T13:23:32;11.80;78.30
3923;DHT22;1976;51.694;6.256;2024-01-16T13:25:58;10.90;79.30
3923;DHT22;1976;51.694;6.256;2024-01-16T13:28:29;9.90;83.20
3923;DHT22;1976;51.694;6.256;2024-01-16T13:30:55;9.40;85.00
3923;DHT22;1976;51.694;6.256;2024-01-16T13:33:23;8.90;86.70
3923;DHT22;1976;51.694;6.256;2024-01-16T13:35:52;8.50;87.50
3923;DHT22;1976;51.694;6.256;2024-01-16T13:38:20;8.40;88.50
3923;DHT22;1976;51.694;6.256;2024-01-16T13:40:45;8.70;88.10
3923;DHT22;1976;51.694;6.256;2024-01-16T13:43:11;9.30;87.50
3923;DHT22;1976;51.694;6.256;2024-01-16T13:45:37;9.30;86.60
3923;DHT22;1976;51.694;6.256;2024-01-16T13:48:04;9.50;86.20
3923;DHT22;1976;51.694;6.256;2024-01-16T13:50:31;9.90;85.90
3923;DHT22;1976;51.694;6.256;2024-01-16T13:52:57;10.10;84.70
3923;DHT22;1976;51.694;6.256;2024-01-16T13:55:23;9.40;85.70
3923;DHT22;1976;51.694;6.256;2024-01-16T13:57:48;8.00;87.80
3923;DHT22;1976;51.694;6.256;2024-01-16T14:00:15;7.70;90.00
3923;DHT22;1976;51.694;6.256;2024-01-16T14:02:46;7.20;90.00
3923;DHT22;1976;51.694;6.256;2024-01-16T14:05:14;7.20;90.70
3923;DHT22;1976;51.694;6.256;2024-01-16T14:07:50;7.60;90.70
3923;DHT22;1976;51.694;6.256;2024-01-16T14:10:20;8.20;90.10
3923;DHT22;1976;51.694;6.256;2024-01-16T14:12:48;8.30;89.80
3923;DHT22;1976;51.694;6.256;2024-01-16T14:15:15;8.70;89.10
3923;DHT22;1976;51.694;6.256;2024-01-16T14:17:45;9.10;87.90
3923;DHT22;1976;51.694;6.256;2024-01-16T14:20:11;9.20;87.30
3923;DHT22;1976;51.694;6.256;2024-01-16T14:22:38;8.80;88.00
3923;DHT22;1976;51.694;6.256;2024-01-16T14:25:06;8.80;89.00
3923;DHT22;1976;51.694;6.256;2024-01-16T14:27:37;8.80;87.80
3923;DHT22;1976;51.694;6.256;2024-01-16T14:30:06;9.00;87.60
3923;DHT22;1976;51.694;6.256;2024-01-16T14:32:34;8.70;87.90
3923;DHT22;1976;51.694;6.256;2024-01-16T14:34:59;8.60;88.40
3923;DHT22;1976;51.694;6.256;2024-01-16T14:37:25;8.60;88.60
3923;DHT22;1976;51.694;6.256;2024-01-16T14:39:51;8.50;88.60
3923;DHT22;1976;51.694;6.256;2024-01-16T14:42:16;8.60;89.60
3923;DHT22;1976;51.694;6.256;2024-01-16T14:44:42;8.70;89.20
3923;DHT22;1976;51.694;6.256;2024-01-16T14:47:07;8.40;88.70
3923;DHT22;1976;51.694;6.256;2024-01-16T14:49:34;7.90;89.00
3923;DHT22;1976;51.694;6.256;2024-01-16T14:52:00;7.90;90.30
3923;DHT22;1976;51.694;6.256;2024-01-16T14:54:26;7.70;89.80
3923;DHT22;1976;51.694;6.256;2024-01-16T14:56:52;7.50;90.20
3923;DHT22;1976;51.694;6.256;2024-01-16T14:59:18;7.60;90.60
3923;DHT22;1976;51.694;6.256;2024-01-16T15:01:44;7.60;90.20
3923;DHT22;1976;51.694;6.256;2024-01-16T15:04:10;7.50;90.40
3923;DHT22;1976;51.694;6.256;2024-01-16T15:06:35;7.60;90.50
3923;DHT22;1976;51.694;6.256;2024-01-16T15:09:01;7.70;90.50
3923;DHT22;1976;51.694;6.256;2024-01-16T15:11:27;7.70;90.20
3923;DHT22;1976;51.694;6.256;2024-01-16T15:13:52;7.50;90.30
3923;DHT22;1976;51.694;6.256;2024-01-16T15:16:18;7.00;90.20
3923;DHT22;1976;51.694;6.256;2024-01-16T15:18:44;6.70;90.80
3923;DHT22;1976;51.694;6.256;2024-01-16T15:21:09;6.20;91.30
3923;DHT22;1976;51.694;6.256;2024-01-16T15:23:35;5.80;91.80
3923;DHT22;1976;51.694;6.256;2024-01-16T15:26:00;5.30;92.50
3923;DHT22;1976;51.694;6.256;2024-01-16T15:28:30;4.90;93.00
3923;DHT22;1976;51.694;6.256;2024-01-16T15:30:55;4.70;93.70
3923;DHT22;1976;51.694;6.256;2024-01-16T15:33:21;4.50;94.00
3923;DHT22;1976;51.694;6.256;2024-01-16T15:35:46;4.40;94.30
3923;DHT22;1976;51.694;6.256;2024-01-16T15:38:12;4.10;94.50
3923;DHT22;1976;51.694;6.256;2024-01-16T15:40:38;4.00;94.80
3923;DHT22;1976;51.694;6.256;2024-01-16T15:43:03;3.90;95.10
3923;DHT22;1976;51.694;6.256;2024-01-16T15:45:29;3.50;95.50
3923;DHT22;1976;51.694;6.256;2024-01-16T15:47:55;3.20;95.90
3923;DHT22;1976;51.694;6.256;2024-01-16T15:50:21;3.00;96.50
3923;DHT22;1976;51.694;6.256;2024-01-16T15:52:46;2.70;97.10
3923;DHT22;1976;51.694;6.256;2024-01-16T15:55:12;2.50;97.70
3923;DHT22;1976;51.694;6.256;2024-01-16T15:57:37;2.20;98.10
3923;DHT22;1976;51.694;6.256;2024-01-16T16:00:06;2.10;98.80
3923;DHT22;1976;51.694;6.256;2024-01-16T16:02:35;1.90;99.30
3923;DHT22;1976;51.694;6.256;2024-01-16T16:05:01;1.70;99.90
3923;DHT22;1976;51.694;6.256;2024-01-16T16:07:27;1.70;99.90
3923;DHT22;1976;51.694;6.256;2024-01-16T16:09:53;1.60;99.90
3923;DHT22;1976;51.694;6.256;2024-01-16T16:12:19;1.50;99.90
3923;DHT22;1976;51.694;6.256;2024-01-16T16:14:45;1.40;99.90
3923;DHT22;1976;51.694;6.256;2024-01-16T16:17:10;1.40;99.90
3923;DHT22;1976;51.694;6.256;2024-01-16T16:19:36;1.40;99.90
3923;DHT22;1976;51.694;6.256;2024-01-16T16:22:03;1.40;99.90
3923;DHT22;1976;51.694;6.256;2024-01-16T16:24:29;1.20;99.90
3923;DHT22;1976;51.694;6.256;2024-01-16T16:26:56;1.10;99.90
3923;DHT22;1976;51.694;6.256;2024-01-16T16:29:22;1.00;99.90
3923;DHT22;1976;51.694;6.256;2024-01-16T16:31:47;0.90;99.90
3923;DHT22;1976;51.694;6.256;2024-01-16T16:34:13;0.80;99.90
3923;DHT22;1976;51.694;6.256;2024-01-16T16:36:44;0.70;99.90
3923;DHT22;1976;51.694;6.256;2024-01-16T16:39:09;0.60;99.90